Maria Desgagnes — VCWL — position and weather

sailwx.info

Track history (hours):
 
Tides and Currents Weather Stations Pressure Air Temp Water Temp Dewpoint Dewpoint Depression Visibility Wind Speed Wind Dir Waves Ship Positions

Maria Desgagnes

Last reported at 2017-Mar-27 06:00 UTC. Time now 2017-Mar-27 08:39 UTC.
Position N 46°48' W 071°12'.

Length 120 m; draft 7.2 m.

Type: Ship. MMSI: 316285000.

Wind from 060 at 6 knots

Barometer 1027.7 mb
Air temperature -2.0 ° C
Dewpoint -9.6 ° C

Date/timePositionNaut miles runAvg speedWind from/ knotsBaromVisibWave heightAir tempDewpointWater temp
2017-Mar-27 06:00N 46°48' W 071°12'0 0.0 060 / 61027.7 -2.0-9.6
2017-Mar-27 03:00N 46°48' W 071°12'0 0.0 060 / 81028.2 -2.1-7.8
2017-Mar-27 00:00N 46°48' W 071°12'0 0.0 040 / 81029.8 -3.6-8.0
2017-Mar-26 21:00N 46°48' W 071°12'0 0.0 020 / 71031.3 0.2-9.3
2017-Mar-26 18:00N 46°48' W 071°12'0 0.0 360 / 61034.3 -0.9-11.8
2017-Mar-26 15:00N 46°48' W 071°12'0 0.0 070 / 41037.1 -4.6-16.1
2017-Mar-26 12:00N 46°48' W 071°12'27 9.1 090 / 51037.3 -8.8-15.6
2017-Mar-26 09:00N 47°06' W 070°42'4113.8 060 / 41035.0 -6.3-15.9 0.4
2017-Mar-26 06:00N 47°36' W 070°00'4816.1 360 / 91034.4 -6.3-17.2 0.1
2017-Mar-26 03:00N 48°18' W 069°24'3712.2 320 / 91033.4 -6.6-18.6 0.3
2017-Mar-26 00:00N 48°42' W 068°42'4013.3 320 / 231029.3 -3.9-16.4 0.2
2017-Mar-25 21:00N 49°00' W 067°48'4314.2 310 / 241024.2 -3.5-19.0-0.7
2017-Mar-25 18:00N 49°24' W 066°54'4314.3 320 / 151023.3 -5.0-18.5-0.9
2017-Mar-25 15:00N 49°42' W 065°54'4113.5 310 / 271020.4 -7.4-15.8-0.9
2017-Mar-25 12:00N 49°54' W 064°54'4013.5 330 / 291017.3 -6.8-14.0-1.0
2017-Mar-25 09:00N 50°06' W 063°54'4013.5 300 / 211009.6 -1.4-2.1-1.1
2017-Mar-25 06:00N 49°54' W 062°54'4113.5 240 / 121010.2 -1.9-5.0-1.1
2017-Mar-25 03:00N 49°42' W 061°54'4314.4 220 / 231012.5 -3.5-4.4-1.1
2017-Mar-25 00:00N 49°36' W 060°48'4113.6 220 / 231016.4 -4.2-8.5-1.1
2017-Mar-24 21:00N 49°24' W 059°48'4514.9 250 / 191019.4 -4.9-9.9-0.7
2017-Mar-24 18:00N 49°12' W 058°42'2213.6 270 / 131021.8 -7.6-13.1-0.5
2017-Mar-24 16:24N 49°05' W 058°11'911.0
2017-Mar-24 15:34N 48°58' W 058°01'4 7.3
2017-Mar-24 15:00N 48°54' W 058°00'4 9.0 310 / 141023.3 -9.3-14.7
2017-Mar-24 14:33N 48°58' W 058°01'0 0.0
2017-Mar-24 13:33N 48°58' W 058°01'0 0.0
2017-Mar-24 12:33N 48°58' W 058°01'4 6.9
2017-Mar-24 12:00N 48°54' W 058°00'4 9.0 280 / 121021.7 -10.4-14.8
2017-Mar-24 11:34N 48°58' W 058°01'0 0.0
2017-Mar-24 10:34N 48°58' W 058°01'0 0.0
2017-Mar-24 09:34N 48°58' W 058°01'4 6.9
2017-Mar-24 09:00N 48°54' W 058°00'4 9.0 310 / 161019.0 -9.4-14.3
2017-Mar-24 08:34N 48°58' W 058°01'0 0.0
2017-Mar-24 07:33N 48°58' W 058°01'0 0.0
2017-Mar-24 06:33N 48°58' W 058°01'4 6.9
2017-Mar-24 06:00N 48°54' W 058°00'4 9.0 340 / 121016.5 -8.7-14.0
2017-Mar-24 05:33N 48°58' W 058°01'0 0.0
2017-Mar-24 04:33N 48°58' W 058°01'0 0.0
2017-Mar-24 03:34N 48°58' W 058°01'4 6.9
2017-Mar-24 03:00N 48°54' W 058°00'4 9.0 330 / 171013.5 -6.5-11.4
2017-Mar-24 02:33N 48°58' W 058°01'0 0.0
2017-Mar-24 01:34N 48°58' W 058°01'0 0.0
2017-Mar-24 00:33N 48°58' W 058°01'4 6.9
2017-Mar-24 00:00N 48°54' W 058°00'4 9.0 320 / 191010.1 -6.1-7.5
2017-Mar-23 23:33N 48°58' W 058°01'0 0.0
2017-Mar-23 22:33N 48°58' W 058°01'0 0.0
2017-Mar-23 21:33N 48°58' W 058°01'4 6.9
2017-Mar-23 21:00N 48°54' W 058°00'4 8.9 320 / 251005.1 -6.3-7.5
2017-Mar-23 20:33N 48°58' W 058°01'0 0.0
2017-Mar-23 19:33N 48°58' W 058°01'0 0.0
2017-Mar-23 18:34N 48°58' W 058°01'4 6.9
2017-Mar-23 18:00N 48°54' W 058°00'4 9.0 310 / 291001.2 -6.0-7.1
2017-Mar-23 17:34N 48°58' W 058°01'0 0.0
2017-Mar-23 16:34N 48°58' W 058°01'0 0.0
2017-Mar-23 15:34N 48°58' W 058°01'4 6.9
2017-Mar-23 15:00N 48°54' W 058°00'4 9.0 300 / 26999.6 -4.3-5.9
2017-Mar-23 14:34N 48°58' W 058°01'0 0.0
2017-Mar-23 13:34N 48°58' W 058°01'0 0.0
2017-Mar-23 12:34N 48°58' W 058°01'4 6.9
2017-Mar-23 12:00N 48°54' W 058°00'4 9.0 310 / 16999.9 -2.0-2.7 0.9
2017-Mar-23 11:34N 48°58' W 058°01'0 0.0
2017-Mar-23 10:33N 48°58' W 058°01'6 6.3
2017-Mar-23 09:34N 49°02' W 058°08'813.7
2017-Mar-23 09:00N 49°06' W 058°18'3612.1 270 / 21001.1 -1.6-2.4-0.0
2017-Mar-23 06:00N 48°48' W 059°06'4113.7 030 / 111002.2 -0.6-2.4 0.1
2017-Mar-23 03:00N 48°12' W 059°36'4314.3 060 / 121004.4 -0.1-1.9-0.0
2017-Mar-23 00:00N 47°30' W 059°48'4314.3 110 / 191006.4 -0.9-1.2-0.9
2017-Mar-22 21:00N 46°48' W 060°00'4314.3 120 / 121006.7 -1.2-2.7-0.8
2017-Mar-22 18:00N 46°06' W 060°12'0 0.0 150 / 81008.4 2.7-2.4
2017-Mar-22 15:00N 46°06' W 060°12'0 0.0 160 / 71010.3 1.4-3.6
2017-Mar-22 12:00N 46°06' W 060°12'0 0.0 190 / 51009.6 -3.4-5.0
2017-Mar-22 09:00N 46°06' W 060°12'0 0.0 140 / 21007.7 -3.5-5.5
2017-Mar-22 06:00N 46°06' W 060°12'24 8.0 280 / 71005.2 -1.3-5.0 0.1
2017-Mar-22 03:00N 46°30' W 060°12'4214.1 300 / 141002.5 -0.4-3.9-0.9
2017-Mar-22 00:00N 47°12' W 060°18'4113.8 290 / 141001.0 -2.1-2.8-0.9
2017-Mar-21 21:00N 47°48' W 060°48'3712.3 340 / 22999.3 -2.6-4.3-0.7
2017-Mar-21 18:00N 48°12' W 061°30'4013.3 350 / 231000.9 -3.7-4.3-0.8
2017-Mar-21 15:00N 48°36' W 062°18'4013.3 360 / 141005.1 -3.6-4.6-0.8
2017-Mar-21 12:00N 48°54' W 063°12'4013.2 350 / 61008.2 -3.3-4.4-0.9
2017-Mar-21 09:00N 49°12' W 064°06'4113.6 140 / 61008.6 -3.4-4.2-0.8
2017-Mar-21 06:00N 49°24' W 065°06'4314.5 170 / 81010.7 -0.3-4.2-0.1
2017-Mar-21 03:00N 49°18' W 066°12'4113.7 100 / 21012.7 -1.9-3.8-0.8
2017-Mar-21 00:00N 49°06' W 067°12'4013.3 050 / 131014.5 -3.0-4.0-0.7
2017-Mar-20 21:00N 48°48' W 068°06'3612.2 090 / 191015.0 -2.3-3.2-0.7
2017-Mar-20 18:00N 48°30' W 068°54'4113.7 050 / 61019.4 -2.5-3.8 0.2
2017-Mar-20 15:00N 48°00' W 069°36'3912.8 060 / 71022.4 -3.4-4.3 0.2
2017-Mar-20 12:00N 47°30' W 070°12'3912.9 090 / 31023.1 -2.1-5.2 0.2
2017-Mar-20 09:00N 47°00' W 070°48'20 6.8 210 / 41023.2 -4.2-6.8 0.5
2017-Mar-20 06:00N 46°48' W 071°12'0 0.0 1023.6 -3.8-6.5
2017-Mar-20 03:00N 46°48' W 071°12'0 0.0 040 / 31024.9 -1.4-5.0
2017-Mar-20 00:00N 46°48' W 071°12'0 0.0 060 / 41024.9 1.2-8.2
2017-Mar-19 21:00N 46°48' W 071°12'0 0.0 290 / 21025.0 5.8-9.8
2017-Mar-19 18:00N 46°48' W 071°12'0 0.0 010 / 51026.6 2.7-5.1
2017-Mar-19 15:00N 46°48' W 071°12'0 0.0 030 / 21029.8 -1.1-5.0
2017-Mar-19 09:00N 46°48' W 071°12'0 0.0 100 / 21028.6 -6.5-7.5 0.6
2017-Mar-19 06:00N 46°48' W 071°12'0 0.0 050 / 41028.7 -2.3-6.7
2017-Mar-19 03:00N 46°48' W 071°12'0 0.0 030 / 81028.4 0.2-4.5
2017-Mar-19 00:00N 46°48' W 071°12'0 0.0 030 / 51027.7 0.6-7.3
2017-Mar-18 21:00N 46°48' W 071°12'0 0.0 050 / 71027.0 1.8-8.0
2017-Mar-18 18:00N 46°48' W 071°12'0 0.0 090 / 21028.0 1.2-10.5
2017-Mar-18 06:00N 46°48' W 071°12'0 0.0 220 / 41025.6 -5.6-9.6
2017-Mar-18 03:00N 46°48' W 071°12'0 0.0 230 / 61024.1 -3.3-10.1
2017-Mar-18 00:00N 46°48' W 071°12'0 0.0 030 / 41022.4 -0.2-8.0
2017-Mar-17 21:00N 46°48' W 071°12'0 0.0 240 / 101019.8 -1.3-10.1
2017-Mar-17 18:00N 46°48' W 071°12'0 0.0 230 / 151019.3 -3.8-11.3
2017-Mar-17 15:00N 46°48' W 071°12'25 8.5 220 / 111019.5 -7.0-12.5 0.4
2017-Mar-17 12:00N 46°42' W 071°48'4113.6 260 / 81019.5 -10.6-14.6 0.4
2017-Mar-17 09:00N 46°18' W 072°36'3511.5 300 / 101017.9 -8.3-14.1 0.4
2017-Mar-17 06:00N 45°54' W 073°12'   300 / 51016.6 -5.7-11.6 0.5
Track history (hours):
 
Tides and Currents Weather Stations Pressure Air Temp Water Temp Dewpoint Dewpoint Depression Visibility Wind Speed Wind Dir Waves Ship Positions

Maria Desgagnes

Last reported at 2017-Mar-27 06:00 UTC. Time now 2017-Mar-27 08:40 UTC.
Position N 46°48' W 071°12'.

Length 120 m; draft 7.2 m.

Type: Ship. MMSI: 316285000.

Wind from 060 at 6 knots

Barometer 1027.7 mb
Air temperature -2.0 ° C
Dewpoint -9.6 ° C

Date/timePositionNaut miles runAvg speedWind from/ knotsBaromVisibWave heightAir tempDewpointWater temp
2017-Mar-27 06:00N 46°48' W 071°12'0 0.0 060 / 61027.7 -2.0-9.6
2017-Mar-27 03:00N 46°48' W 071°12'0 0.0 060 / 81028.2 -2.1-7.8
2017-Mar-27 00:00N 46°48' W 071°12'0 0.0 040 / 81029.8 -3.6-8.0
2017-Mar-26 21:00N 46°48' W 071°12'0 0.0 020 / 71031.3 0.2-9.3
2017-Mar-26 18:00N 46°48' W 071°12'0 0.0 360 / 61034.3 -0.9-11.8
2017-Mar-26 15:00N 46°48' W 071°12'0 0.0 070 / 41037.1 -4.6-16.1
2017-Mar-26 12:00N 46°48' W 071°12'27 9.1 090 / 51037.3 -8.8-15.6
2017-Mar-26 09:00N 47°06' W 070°42'4113.8 060 / 41035.0 -6.3-15.9 0.4
2017-Mar-26 06:00N 47°36' W 070°00'4816.1 360 / 91034.4 -6.3-17.2 0.1
2017-Mar-26 03:00N 48°18' W 069°24'3712.2 320 / 91033.4 -6.6-18.6 0.3
2017-Mar-26 00:00N 48°42' W 068°42'4013.3 320 / 231029.3 -3.9-16.4 0.2
2017-Mar-25 21:00N 49°00' W 067°48'4314.2 310 / 241024.2 -3.5-19.0-0.7
2017-Mar-25 18:00N 49°24' W 066°54'4314.3 320 / 151023.3 -5.0-18.5-0.9
2017-Mar-25 15:00N 49°42' W 065°54'4113.5 310 / 271020.4 -7.4-15.8-0.9
2017-Mar-25 12:00N 49°54' W 064°54'4013.5 330 / 291017.3 -6.8-14.0-1.0
2017-Mar-25 09:00N 50°06' W 063°54'4013.5 300 / 211009.6 -1.4-2.1-1.1
2017-Mar-25 06:00N 49°54' W 062°54'4113.5 240 / 121010.2 -1.9-5.0-1.1
2017-Mar-25 03:00N 49°42' W 061°54'4314.4 220 / 231012.5 -3.5-4.4-1.1
2017-Mar-25 00:00N 49°36' W 060°48'4113.6 220 / 231016.4 -4.2-8.5-1.1
2017-Mar-24 21:00N 49°24' W 059°48'4514.9 250 / 191019.4 -4.9-9.9-0.7
2017-Mar-24 18:00N 49°12' W 058°42'2213.6 270 / 131021.8 -7.6-13.1-0.5
2017-Mar-24 16:24N 49°05' W 058°11'911.0
2017-Mar-24 15:34N 48°58' W 058°01'4 7.3
2017-Mar-24 15:00N 48°54' W 058°00'4 9.0 310 / 141023.3 -9.3-14.7
2017-Mar-24 14:33N 48°58' W 058°01'0 0.0
2017-Mar-24 13:33N 48°58' W 058°01'0 0.0
2017-Mar-24 12:33N 48°58' W 058°01'4 6.9
2017-Mar-24 12:00N 48°54' W 058°00'4 9.0 280 / 121021.7 -10.4-14.8
2017-Mar-24 11:34N 48°58' W 058°01'0 0.0
2017-Mar-24 10:34N 48°58' W 058°01'0 0.0
2017-Mar-24 09:34N 48°58' W 058°01'4 6.9
2017-Mar-24 09:00N 48°54' W 058°00'4 9.0 310 / 161019.0 -9.4-14.3
2017-Mar-24 08:34N 48°58' W 058°01'0 0.0
2017-Mar-24 07:33N 48°58' W 058°01'0 0.0
2017-Mar-24 06:33N 48°58' W 058°01'4 6.9
2017-Mar-24 06:00N 48°54' W 058°00'4 9.0 340 / 121016.5 -8.7-14.0
2017-Mar-24 05:33N 48°58' W 058°01'0 0.0
2017-Mar-24 04:33N 48°58' W 058°01'0 0.0
2017-Mar-24 03:34N 48°58' W 058°01'4 6.9
2017-Mar-24 03:00N 48°54' W 058°00'4 9.0 330 / 171013.5 -6.5-11.4
2017-Mar-24 02:33N 48°58' W 058°01'0 0.0
2017-Mar-24 01:34N 48°58' W 058°01'0 0.0
2017-Mar-24 00:33N 48°58' W 058°01'4 6.9
2017-Mar-24 00:00N 48°54' W 058°00'4 9.0 320 / 191010.1 -6.1-7.5
2017-Mar-23 23:33N 48°58' W 058°01'0 0.0
2017-Mar-23 22:33N 48°58' W 058°01'0 0.0
2017-Mar-23 21:33N 48°58' W 058°01'4 6.9
2017-Mar-23 21:00N 48°54' W 058°00'4 8.9 320 / 251005.1 -6.3-7.5
2017-Mar-23 20:33N 48°58' W 058°01'0 0.0
2017-Mar-23 19:33N 48°58' W 058°01'0 0.0
2017-Mar-23 18:34N 48°58' W 058°01'4 6.9
2017-Mar-23 18:00N 48°54' W 058°00'4 9.0 310 / 291001.2 -6.0-7.1
2017-Mar-23 17:34N 48°58' W 058°01'0 0.0
2017-Mar-23 16:34N 48°58' W 058°01'0 0.0
2017-Mar-23 15:34N 48°58' W 058°01'4 6.9
2017-Mar-23 15:00N 48°54' W 058°00'4 9.0 300 / 26999.6 -4.3-5.9
2017-Mar-23 14:34N 48°58' W 058°01'0 0.0
2017-Mar-23 13:34N 48°58' W 058°01'0 0.0
2017-Mar-23 12:34N 48°58' W 058°01'4 6.9
2017-Mar-23 12:00N 48°54' W 058°00'4 9.0 310 / 16999.9 -2.0-2.7 0.9
2017-Mar-23 11:34N 48°58' W 058°01'0 0.0
2017-Mar-23 10:33N 48°58' W 058°01'6 6.3
2017-Mar-23 09:34N 49°02' W 058°08'813.7
2017-Mar-23 09:00N 49°06' W 058°18'3612.1 270 / 21001.1 -1.6-2.4-0.0
2017-Mar-23 06:00N 48°48' W 059°06'4113.7 030 / 111002.2 -0.6-2.4 0.1
2017-Mar-23 03:00N 48°12' W 059°36'4314.3 060 / 121004.4 -0.1-1.9-0.0
2017-Mar-23 00:00N 47°30' W 059°48'4314.3 110 / 191006.4 -0.9-1.2-0.9
2017-Mar-22 21:00N 46°48' W 060°00'4314.3 120 / 121006.7 -1.2-2.7-0.8
2017-Mar-22 18:00N 46°06' W 060°12'0 0.0 150 / 81008.4 2.7-2.4
2017-Mar-22 15:00N 46°06' W 060°12'0 0.0 160 / 71010.3 1.4-3.6
2017-Mar-22 12:00N 46°06' W 060°12'0 0.0 190 / 51009.6 -3.4-5.0
2017-Mar-22 09:00N 46°06' W 060°12'0 0.0 140 / 21007.7 -3.5-5.5
2017-Mar-22 06:00N 46°06' W 060°12'24 8.0 280 / 71005.2 -1.3-5.0 0.1
2017-Mar-22 03:00N 46°30' W 060°12'4214.1 300 / 141002.5 -0.4-3.9-0.9
2017-Mar-22 00:00N 47°12' W 060°18'4113.8 290 / 141001.0 -2.1-2.8-0.9
2017-Mar-21 21:00N 47°48' W 060°48'3712.3 340 / 22999.3 -2.6-4.3-0.7
2017-Mar-21 18:00N 48°12' W 061°30'4013.3 350 / 231000.9 -3.7-4.3-0.8
2017-Mar-21 15:00N 48°36' W 062°18'4013.3 360 / 141005.1 -3.6-4.6-0.8
2017-Mar-21 12:00N 48°54' W 063°12'4013.2 350 / 61008.2 -3.3-4.4-0.9
2017-Mar-21 09:00N 49°12' W 064°06'4113.6 140 / 61008.6 -3.4-4.2-0.8
2017-Mar-21 06:00N 49°24' W 065°06'4314.5 170 / 81010.7 -0.3-4.2-0.1
2017-Mar-21 03:00N 49°18' W 066°12'4113.7 100 / 21012.7 -1.9-3.8-0.8
2017-Mar-21 00:00N 49°06' W 067°12'4013.3 050 / 131014.5 -3.0-4.0-0.7
2017-Mar-20 21:00N 48°48' W 068°06'3612.2 090 / 191015.0 -2.3-3.2-0.7
2017-Mar-20 18:00N 48°30' W 068°54'4113.7 050 / 61019.4 -2.5-3.8 0.2
2017-Mar-20 15:00N 48°00' W 069°36'3912.8 060 / 71022.4 -3.4-4.3 0.2
2017-Mar-20 12:00N 47°30' W 070°12'3912.9 090 / 31023.1 -2.1-5.2 0.2
2017-Mar-20 09:00N 47°00' W 070°48'20 6.8 210 / 41023.2 -4.2-6.8 0.5
2017-Mar-20 06:00N 46°48' W 071°12'0 0.0 1023.6 -3.8-6.5
2017-Mar-20 03:00N 46°48' W 071°12'0 0.0 040 / 31024.9 -1.4-5.0
2017-Mar-20 00:00N 46°48' W 071°12'0 0.0 060 / 41024.9 1.2-8.2
2017-Mar-19 21:00N 46°48' W 071°12'0 0.0 290 / 21025.0 5.8-9.8
2017-Mar-19 18:00N 46°48' W 071°12'0 0.0 010 / 51026.6 2.7-5.1
2017-Mar-19 15:00N 46°48' W 071°12'0 0.0 030 / 21029.8 -1.1-5.0
2017-Mar-19 09:00N 46°48' W 071°12'0 0.0 100 / 21028.6 -6.5-7.5 0.6
2017-Mar-19 06:00N 46°48' W 071°12'0 0.0 050 / 41028.7 -2.3-6.7
2017-Mar-19 03:00N 46°48' W 071°12'0 0.0 030 / 81028.4 0.2-4.5
2017-Mar-19 00:00N 46°48' W 071°12'0 0.0 030 / 51027.7 0.6-7.3
2017-Mar-18 21:00N 46°48' W 071°12'0 0.0 050 / 71027.0 1.8-8.0
2017-Mar-18 18:00N 46°48' W 071°12'0 0.0 090 / 21028.0 1.2-10.5
2017-Mar-18 06:00N 46°48' W 071°12'0 0.0 220 / 41025.6 -5.6-9.6
2017-Mar-18 03:00N 46°48' W 071°12'0 0.0 230 / 61024.1 -3.3-10.1
2017-Mar-18 00:00N 46°48' W 071°12'0 0.0 030 / 41022.4 -0.2-8.0
2017-Mar-17 21:00N 46°48' W 071°12'0 0.0 240 / 101019.8 -1.3-10.1
2017-Mar-17 18:00N 46°48' W 071°12'0 0.0 230 / 151019.3 -3.8-11.3
2017-Mar-17 15:00N 46°48' W 071°12'25 8.5 220 / 111019.5 -7.0-12.5 0.4
2017-Mar-17 12:00N 46°42' W 071°48'4113.6 260 / 81019.5 -10.6-14.6 0.4
2017-Mar-17 09:00N 46°18' W 072°36'3511.5 300 / 101017.9 -8.3-14.1 0.4
2017-Mar-17 06:00N 45°54' W 073°12'   300 / 51016.6 -5.7-11.6 0.5

Dump ship's entire track history